Time;durP1;ratioP1;P1;durP2;ratioP2;P2;SDS_P1;SDS_P2;PMS_P1;PMS_P2;Temp;Humidity;BMP_temperature;BMP_pressure;BME280_temperature;BME280_humidity;BME280_pressure;Samples;Min_cycle;Max_cycle;Signal;HPM_P1;HPM_P2
2021/10/17 04:01:52;;;;;;;54.03;24.57;;;6.90;99.90;;;;;;6233665;22;20509;-71
2021/10/17 04:04:18;;;;;;;105.10;26.90;;;6.90;99.90;;;;;;6248339;23;20442;-72
2021/10/17 04:06:45;;;;;;;67.47;23.47;;;7.00;99.90;;;;;;6248317;23;20414;-71
2021/10/17 04:09:12;;;;;;;36.37;20.50;;;7.00;99.90;;;;;;6247741;23;20388;-71
2021/10/17 04:11:38;;;;;;;24.63;21.30;;;7.00;99.90;;;;;;6248148;22;20430;-72
2021/10/17 04:14:05;;;;;;;29.10;20.10;;;7.00;99.90;;;;;;6248534;23;20407;-71
2021/10/17 04:16:32;;;;;;;25.87;19.50;;;7.00;99.90;;;;;;6248563;23;20414;-71
2021/10/17 04:19:02;;;;;;;39.57;20.60;;;7.00;99.90;;;;;;6248880;23;20513;-71
2021/10/17 04:21:29;;;;;;;22.10;19.67;;;7.00;99.90;;;;;;6248384;22;20426;-71
2021/10/17 04:23:56;;;;;;;25.93;21.57;;;7.00;99.90;;;;;;6249736;23;20402;-71
2021/10/17 04:26:23;;;;;;;27.40;21.60;;;6.90;99.90;;;;;;6262754;23;20434;-71
2021/10/17 04:28:50;;;;;;;25.50;19.23;;;7.00;99.90;;;;;;6270712;23;20407;-71
2021/10/17 04:31:16;;;;;;;23.47;20.50;;;7.00;99.90;;;;;;6252660;22;20430;-71
2021/10/17 04:33:43;;;;;;;20.83;18.60;;;7.00;99.90;;;;;;6249039;23;20418;-71
2021/10/17 04:36:12;;;;;;;22.07;18.10;;;7.00;99.90;;;;;;6248252;23;20410;-71
2021/10/17 04:38:39;;;;;;;21.73;18.70;;;7.00;99.90;;;;;;6248047;23;20774;-71
2021/10/17 04:41:07;;;;;;;21.43;19.13;;;6.90;99.90;;;;;;6248244;22;20743;-70
2021/10/17 04:43:34;;;;;;;26.30;21.60;;;7.00;99.90;;;;;;6248058;23;20418;-71
2021/10/17 04:46:01;;;;;;;21.67;19.37;;;6.90;99.90;;;;;;6248080;23;20773;-71
2021/10/17 04:48:27;;;;;;;21.43;19.33;;;6.90;99.90;;;;;;6248222;23;20465;-72
2021/10/17 04:50:54;;;;;;;20.70;18.10;;;6.90;99.90;;;;;;6247906;22;20434;-71
2021/10/17 04:53:22;;;;;;;22.67;20.30;;;6.90;99.90;;;;;;6248261;23;20411;-72
2021/10/17 04:55:49;;;;;;;22.60;18.73;;;7.00;99.90;;;;;;6247857;23;20410;-72
2021/10/17 04:58:16;;;;;;;22.03;19.43;;;7.00;99.90;;;;;;6248380;23;20413;-71
2021/10/17 05:00:43;;;;;;;22.57;20.27;;;6.90;99.90;;;;;;6247016;22;20954;-72
2021/10/17 05:03:10;;;;;;;21.03;18.30;;;7.00;99.90;;;;;;6248332;23;20399;-71
2021/10/17 05:05:37;;;;;;;22.93;18.67;;;7.00;99.90;;;;;;6247876;23;20410;-71
2021/10/17 05:08:04;;;;;;;21.63;17.90;;;7.00;99.90;;;;;;6247970;23;20418;-72
2021/10/17 05:10:32;;;;;;;19.50;17.40;;;7.00;99.90;;;;;;6247948;22;20427;-71
2021/10/17 05:12:59;;;;;;;20.20;16.93;;;7.00;99.90;;;;;;6248042;23;20896;-73
2021/10/17 05:15:25;;;;;;;19.77;17.20;;;7.10;99.90;;;;;;6248702;23;20414;-71
2021/10/17 05:17:52;;;;;;;19.00;15.63;;;7.10;99.90;;;;;;6247719;23;20456;-71
2021/10/17 05:20:19;;;;;;;18.30;15.40;;;7.10;99.90;;;;;;6247916;22;20442;-71
2021/10/17 05:22:46;;;;;;;19.93;16.23;;;7.10;99.90;;;;;;6249104;23;20411;-72
2021/10/17 05:25:13;;;;;;;19.57;16.47;;;7.00;99.90;;;;;;6260118;23;20399;-70
2021/10/17 05:27:41;;;;;;;19.10;16.50;;;7.10;99.90;;;;;;6250051;23;20453;-70
2021/10/17 05:30:09;;;;;;;19.70;16.37;;;7.10;99.90;;;;;;6249938;23;20407;-71
2021/10/17 05:32:36;;;;;;;20.80;18.10;;;7.10;99.90;;;;;;6250193;23;20410;-70
2021/10/17 05:35:03;;;;;;;20.70;17.37;;;7.10;99.90;;;;;;6250189;23;20414;-72
2021/10/17 05:37:29;;;;;;;22.17;18.70;;;7.10;99.90;;;;;;6250511;23;20410;-71
2021/10/17 05:39:56;;;;;;;17.53;15.60;;;7.10;99.90;;;;;;6249586;23;20438;-71
2021/10/17 05:42:23;;;;;;;20.70;17.40;;;7.10;99.90;;;;;;6249927;22;20430;-73
2021/10/17 05:44:51;;;;;;;21.30;17.97;;;7.10;99.90;;;;;;6249251;23;20781;-71
2021/10/17 05:47:17;;;;;;;20.80;18.37;;;7.10;99.90;;;;;;6249355;23;20415;-70
2021/10/17 05:49:45;;;;;;;19.47;16.60;;;7.10;99.90;;;;;;6249292;23;20407;-70
2021/10/17 05:52:12;;;;;;;18.37;16.43;;;7.20;99.90;;;;;;6249702;22;20439;-71
2021/10/17 05:54:39;;;;;;;21.60;18.53;;;7.20;99.90;;;;;;6250152;23;20695;-71
2021/10/17 05:57:06;;;;;;;17.70;15.43;;;7.20;99.90;;;;;;6249610;23;20410;-71
2021/10/17 05:59:33;;;;;;;18.17;15.87;;;7.20;99.90;;;;;;6249596;23;20438;-71
2021/10/17 06:02:01;;;;;;;17.13;15.33;;;7.30;99.90;;;;;;6249432;22;20445;-71
2021/10/17 06:04:28;;;;;;;17.20;15.40;;;7.40;99.90;;;;;;6249418;23;20415;-71
2021/10/17 06:06:55;;;;;;;17.17;15.37;;;7.40;99.90;;;;;;6249314;23;20417;-71
2021/10/17 06:09:21;;;;;;;17.30;15.40;;;7.50;99.90;;;;;;6249574;23;20494;-71
2021/10/17 06:11:48;;;;;;;18.90;16.70;;;7.60;99.90;;;;;;6248953;22;20431;-70
2021/10/17 06:14:15;;;;;;;19.60;17.00;;;7.60;99.90;;;;;;6249469;23;20395;-71
2021/10/17 06:16:41;;;;;;;18.77;16.87;;;7.60;99.90;;;;;;6250426;23;20422;-71
2021/10/17 06:19:10;;;;;;;22.03;17.73;;;7.60;99.90;;;;;;6250331;23;20410;-71
2021/10/17 06:21:36;;;;;;;18.80;16.77;;;7.60;99.90;;;;;;6249423;22;20446;-70
2021/10/17 06:24:03;;;;;;;17.10;15.37;;;7.70;99.90;;;;;;6249303;23;20433;-71
2021/10/17 06:26:30;;;;;;;17.43;15.53;;;7.70;99.90;;;;;;6248488;23;20415;-72
2021/10/17 06:28:56;;;;;;;17.87;16.07;;;7.80;99.90;;;;;;6248844;23;20718;-71
2021/10/17 06:31:23;;;;;;;18.43;16.53;;;7.90;99.90;;;;;;6248331;22;20426;-72
2021/10/17 06:33:50;;;;;;;18.20;15.90;;;8.00;99.90;;;;;;6248212;23;20418;-71
2021/10/17 06:36:18;;;;;;;18.50;15.63;;;8.00;99.90;;;;;;6248941;23;20438;-71
2021/10/17 06:38:44;;;;;;;18.50;16.50;;;8.10;99.90;;;;;;6249811;23;20411;-71
2021/10/17 06:41:12;;;;;;;19.17;17.17;;;8.10;99.90;;;;;;6248604;22;20442;-71
2021/10/17 06:43:38;;;;;;;22.33;18.20;;;8.20;99.90;;;;;;6250294;23;20418;-71
2021/10/17 06:46:05;;;;;;;18.07;16.17;;;8.20;99.90;;;;;;6259951;23;20888;-70
2021/10/17 06:48:32;;;;;;;18.87;16.87;;;8.30;99.90;;;;;;6258651;23;20407;-71
2021/10/17 06:50:58;;;;;;;21.17;17.20;;;8.30;99.90;;;;;;6250313;22;20936;-70
2021/10/17 06:53:26;;;;;;;19.40;17.40;;;8.40;99.90;;;;;;6249455;23;20488;-71
2021/10/17 06:55:54;;;;;;;19.77;17.83;;;8.40;99.90;;;;;;6249247;23;20426;-71
2021/10/17 06:58:20;;;;;;;19.13;17.20;;;8.40;99.90;;;;;;6249208;23;20383;-71
2021/10/17 07:00:47;;;;;;;20.30;17.73;;;8.50;99.90;;;;;;6247883;22;20442;-70
2021/10/17 07:03:14;;;;;;;20.23;17.33;;;8.60;99.90;;;;;;6248480;23;20931;-71
2021/10/17 07:05:41;;;;;;;18.30;16.47;;;8.70;99.90;;;;;;6256260;23;20422;-71
2021/10/17 07:08:07;;;;;;;19.77;17.87;;;8.80;99.90;;;;;;6253569;23;20407;-71
2021/10/17 07:10:35;;;;;;;19.20;16.40;;;8.80;99.90;;;;;;6250157;22;20531;-71
2021/10/17 07:13:02;;;;;;;18.30;16.60;;;9.00;99.90;;;;;;6250101;23;20475;-72
2021/10/17 07:15:29;;;;;;;17.87;16.07;;;9.10;99.90;;;;;;6249762;23;20418;-71
2021/10/17 07:17:55;;;;;;;18.83;16.93;;;9.20;99.90;;;;;;6249486;23;20434;-72
2021/10/17 07:20:23;;;;;;;17.70;16.00;;;9.30;99.90;;;;;;6249388;22;20434;-72
2021/10/17 07:22:50;;;;;;;20.10;18.10;;;9.30;99.90;;;;;;6248601;23;20410;-72
2021/10/17 07:25:17;;;;;;;20.33;18.13;;;9.40;99.90;;;;;;6248769;23;20438;-71
2021/10/17 07:27:45;;;;;;;18.30;16.50;;;9.40;99.90;;;;;;6248659;23;20900;-72
2021/10/17 07:30:12;;;;;;;19.23;17.30;;;9.20;99.90;;;;;;6249409;22;20414;-72
2021/10/17 07:32:39;;;;;;;20.33;18.33;;;9.30;99.90;;;;;;6249047;23;20418;-72
2021/10/17 07:35:07;;;;;;;19.33;17.43;;;9.30;99.90;;;;;;6248051;23;20406;-72
2021/10/17 07:37:33;;;;;;;21.80;19.60;;;9.20;99.90;;;;;;6249456;23;20554;-72
2021/10/17 07:40:00;;;;;;;19.73;17.83;;;9.20;99.90;;;;;;6248533;23;20435;-70
2021/10/17 07:42:27;;;;;;;20.80;18.60;;;9.10;99.90;;;;;;6248632;22;20435;-72
2021/10/17 07:44:55;;;;;;;21.87;19.53;;;9.10;99.90;;;;;;6249122;23;20419;-72
2021/10/17 07:47:21;;;;;;;20.53;18.43;;;9.10;99.90;;;;;;6248635;23;20418;-72
2021/10/17 07:49:48;;;;;;;22.73;20.27;;;9.10;99.90;;;;;;6248961;23;20411;-73
2021/10/17 07:52:15;;;;;;;22.00;19.63;;;9.10;99.90;;;;;;6248970;22;20502;-73
2021/10/17 07:54:41;;;;;;;22.87;19.70;;;9.10;99.90;;;;;;6261297;23;20411;-72
2021/10/17 07:57:09;;;;;;;23.60;20.40;;;9.10;99.90;;;;;;6262516;23;20414;-72
2021/10/17 07:59:36;;;;;;;22.63;20.27;;;9.10;99.90;;;;;;6248853;23;20411;-72
2021/10/17 08:02:05;;;;;;;33.53;21.30;;;9.20;99.90;;;;;;6247665;22;20442;-72
2021/10/17 08:04:32;;;;;;;28.20;20.40;;;9.10;99.90;;;;;;6248837;23;20921;-72
2021/10/17 08:07:03;;;;;;;26.40;19.20;;;9.10;99.90;;;;;;6250209;23;20411;-72
2021/10/17 08:09:33;;;;;;;31.03;21.57;;;9.20;99.90;;;;;;6251882;23;20399;-73
2021/10/17 08:12:01;;;;;;;25.60;21.90;;;9.00;99.90;;;;;;6250775;22;20427;-72
2021/10/17 08:14:27;;;;;;;24.23;20.67;;;9.10;99.90;;;;;;6251123;23;20411;-72
2021/10/17 08:16:54;;;;;;;22.60;20.13;;;9.20;99.90;;;;;;6250516;23;20417;-72
2021/10/17 08:19:22;;;;;;;22.50;20.10;;;9.30;99.90;;;;;;6252913;23;20449;-72
2021/10/17 08:21:49;;;;;;;54.90;19.60;;;9.40;99.90;;;;;;6249775;22;20462;-72
2021/10/17 08:24:16;;;;;;;26.37;20.00;;;9.40;99.90;;;;;;6248896;23;20418;-72
2021/10/17 08:26:43;;;;;;;26.03;20.30;;;9.30;99.90;;;;;;6249453;23;20411;-72
2021/10/17 08:29:10;;;;;;;20.90;18.57;;;9.30;99.90;;;;;;6248181;23;20419;-72
2021/10/17 08:31:37;;;;;;;23.67;18.60;;;9.40;99.90;;;;;;6248149;22;20450;-72
2021/10/17 08:34:04;;;;;;;25.17;20.27;;;9.50;99.90;;;;;;6248499;23;20411;-72
2021/10/17 08:36:32;;;;;;;27.73;18.97;;;9.50;99.90;;;;;;6249658;23;20410;-71
2021/10/17 08:38:59;;;;;;;21.73;18.60;;;9.50;99.90;;;;;;6249159;23;20743;-70
2021/10/17 08:41:25;;;;;;;26.20;17.83;;;9.60;99.90;;;;;;6247699;22;20942;-70
2021/10/17 08:43:52;;;;;;;22.43;18.53;;;9.60;99.90;;;;;;6249351;23;20411;-70
2021/10/17 08:46:20;;;;;;;22.23;17.17;;;9.60;99.90;;;;;;6248587;23;20411;-70
2021/10/17 08:48:55;;;;;;;20.70;17.47;;;9.70;99.90;;;;;;6248057;23;20410;-70
2021/10/17 08:51:24;;;;;;;19.40;16.67;;;9.90;99.90;;;;;;6248517;22;20422;-69
2021/10/17 08:53:53;;;;;;;20.77;16.70;;;10.00;99.90;;;;;;6248496;23;20410;-70
2021/10/17 08:56:21;;;;;;;17.77;14.60;;;10.10;99.90;;;;;;6250030;23;20887;-69
2021/10/17 08:58:47;;;;;;;19.50;16.07;;;10.40;99.90;;;;;;6249731;23;20868;-69
2021/10/17 09:01:16;;;;;;;18.57;13.80;;;10.50;99.90;;;;;;6250030;22;20501;-70
2021/10/17 09:03:51;;;;;;;17.93;14.70;;;10.60;99.90;;;;;;6250116;23;20418;-70
2021/10/17 09:06:20;;;;;;;15.73;13.37;;;10.70;99.90;;;;;;6250011;23;20395;-68
2021/10/17 09:08:48;;;;;;;18.60;15.13;;;10.50;99.90;;;;;;6253762;23;20497;-69
2021/10/17 09:11:36;;;;;;;17.77;14.73;;;10.60;99.90;;;;;;6249764;22;20427;-70
2021/10/17 09:14:03;;;;;;;17.90;14.10;;;10.60;99.90;;;;;;6250866;23;20402;-70
2021/10/17 09:16:30;;;;;;;16.30;14.10;;;10.80;99.90;;;;;;6249988;23;20395;-69
2021/10/17 09:19:11;;;;;;;15.20;13.60;;;10.90;99.90;;;;;;6250032;23;20457;-69
2021/10/17 09:21:38;;;;;;;15.97;14.03;;;11.00;99.90;;;;;;6250631;22;20947;-70
2021/10/17 09:24:05;;;;;;;14.40;12.90;;;11.00;99.90;;;;;;6252873;23;20402;-69
2021/10/17 09:26:37;;;;;;;18.90;13.80;;;10.80;99.90;;;;;;6251146;23;20395;-69
2021/10/17 09:29:04;;;;;;;18.07;14.67;;;10.60;99.90;;;;;;6255076;23;20400;-70
2021/10/17 09:31:31;;;;;;;15.57;13.83;;;10.40;99.90;;;;;;6251578;22;20427;-72
2021/10/17 09:33:58;;;;;;;14.87;13.17;;;10.50;99.90;;;;;;6251005;23;20411;-71
2021/10/17 09:36:30;;;;;;;17.10;14.80;;;10.50;99.90;;;;;;6250211;23;20514;-70
2021/10/17 09:39:07;;;;;;;16.37;14.10;;;10.60;99.90;;;;;;6259289;23;20434;-71
2021/10/17 09:41:47;;;;;;;15.80;14.10;;;10.80;99.90;;;;;;6259207;22;20474;-71
2021/10/17 09:44:14;;;;;;;17.30;15.50;;;10.80;99.90;;;;;;6252285;23;20397;-71
2021/10/17 09:46:56;;;;;;;17.37;15.17;;;10.80;99.90;;;;;;6251384;23;20406;-71
2021/10/17 09:49:23;;;;;;;17.23;15.20;;;10.80;99.90;;;;;;6253190;23;20396;-71
2021/10/17 09:51:49;;;;;;;17.23;15.37;;;10.60;99.90;;;;;;6256304;22;20431;-71
2021/10/17 09:54:21;;;;;;;18.07;16.00;;;10.60;99.90;;;;;;6264923;23;20411;-69
2021/10/17 09:56:49;;;;;;;19.13;14.97;;;10.50;99.90;;;;;;6264605;23;20852;-71
2021/10/17 09:59:16;;;;;;;16.83;14.67;;;10.50;99.90;;;;;;6264212;23;20441;-71
2021/10/17 10:01:43;;;;;;;18.50;16.47;;;10.70;99.90;;;;;;6260165;22;20443;-72
2021/10/17 10:04:12;;;;;;;18.07;16.17;;;10.60;99.90;;;;;;6251601;23;20407;-71
2021/10/17 10:06:39;;;;;;;18.73;16.73;;;10.50;99.90;;;;;;6262687;23;20425;-71
2021/10/17 10:09:08;;;;;;;16.87;15.20;;;10.50;99.90;;;;;;6251252;23;20417;-71
2021/10/17 10:11:36;;;;;;;18.87;16.10;;;10.80;99.90;;;;;;6251982;22;20824;-70
2021/10/17 10:14:06;;;;;;;18.90;16.60;;;10.90;99.90;;;;;;6256154;23;20433;-71
2021/10/17 10:16:34;;;;;;;18.20;16.37;;;11.20;99.90;;;;;;6251027;23;20719;-71
2021/10/17 10:19:02;;;;;;;18.10;16.20;;;11.30;99.90;;;;;;6250202;23;20742;-71
2021/10/17 10:21:30;;;;;;;19.13;16.80;;;11.50;99.90;;;;;;6250594;22;20928;-71
2021/10/17 10:23:59;;;;;;;19.00;17.00;;;11.60;99.90;;;;;;6251459;23;20411;-68
2021/10/17 10:26:28;;;;;;;18.87;16.87;;;11.60;99.90;;;;;;6250859;23;20419;-68
2021/10/17 10:28:56;;;;;;;18.97;16.97;;;11.60;99.90;;;;;;6252735;23;20399;-70
2021/10/17 10:31:46;;;;;;;21.10;18.90;;;11.60;99.90;;;;;;6250658;22;20427;-70
2021/10/17 10:34:14;;;;;;;20.10;18.07;;;11.70;99.90;;;;;;6251014;23;20429;-69
2021/10/17 10:36:42;;;;;;;19.07;17.10;;;11.80;99.90;;;;;;6250149;23;20408;-69
2021/10/17 10:39:11;;;;;;;19.70;17.70;;;11.80;99.90;;;;;;6251013;23;20407;-69
2021/10/17 10:41:50;;;;;;;20.93;18.80;;;11.90;99.90;;;;;;6251248;22;20927;-69
2021/10/17 10:44:20;;;;;;;19.10;17.20;;;11.90;99.90;;;;;;6251197;23;20432;-69
2021/10/17 10:46:49;;;;;;;20.57;18.47;;;11.80;99.90;;;;;;6250849;23;20895;-69
2021/10/17 10:49:42;;;;;;;20.70;18.50;;;11.80;99.90;;;;;;6251210;23;20418;-70
2021/10/17 10:52:11;;;;;;;20.23;18.13;;;11.90;99.90;;;;;;6250333;22;20430;-70
2021/10/17 10:54:38;;;;;;;19.87;17.87;;;12.10;99.90;;;;;;6250469;23;20418;-69
2021/10/17 10:57:19;;;;;;;20.63;16.30;;;12.20;99.90;;;;;;6250352;23;20418;-69
2021/10/17 11:00:00;;;;;;;19.13;17.17;;;12.30;99.90;;;;;;6249361;23;20449;-70
2021/10/17 11:02:28;;;;;;;20.00;18.00;;;12.30;99.90;;;;;;6250682;22;20434;-70
2021/10/17 11:05:00;;;;;;;20.40;17.77;;;12.10;99.90;;;;;;6260571;23;20417;-69
2021/10/17 11:07:33;;;;;;;19.37;16.97;;;12.30;99.90;;;;;;6271872;23;20388;-68
2021/10/17 11:10:47;;;;;;;21.33;17.80;;;12.20;99.90;;;;;;6253145;23;20729;-69
2021/10/17 11:13:30;;;;;;;18.27;16.37;;;12.10;99.90;;;;;;6249915;23;20394;-68
2021/10/17 11:15:57;;;;;;;20.20;17.77;;;12.10;99.90;;;;;;6245230;23;20461;-69
2021/10/17 11:18:37;;;;;;;21.23;18.57;;;12.20;99.90;;;;;;6249554;23;20407;-69
2021/10/17 11:21:05;;;;;;;21.23;19.03;;;12.00;99.90;;;;;;6248892;22;20473;-69
2021/10/17 11:23:34;;;;;;;21.47;18.50;;;11.70;99.90;;;;;;6250627;23;20413;-69
2021/10/17 11:26:03;;;;;;;20.87;18.47;;;11.80;99.90;;;;;;6248719;23;20923;-69
2021/10/17 11:28:31;;;;;;;22.37;18.57;;;11.90;99.90;;;;;;6248808;23;20411;-69
2021/10/17 11:31:09;;;;;;;21.83;17.10;;;11.80;99.90;;;;;;6249191;22;20797;-69
2021/10/17 11:33:39;;;;;;;19.63;17.53;;;11.70;99.90;;;;;;6248400;23;20395;-70
2021/10/17 11:36:07;;;;;;;20.90;18.30;;;11.70;99.90;;;;;;6250473;23;20780;-72
2021/10/17 11:38:34;;;;;;;21.03;18.20;;;11.70;99.90;;;;;;6249659;23;20410;-71
2021/10/17 11:41:03;;;;;;;21.07;18.00;;;11.80;99.90;;;;;;6249294;22;20427;-70
2021/10/17 11:43:35;;;;;;;23.90;18.17;;;11.90;99.90;;;;;;6248626;23;20414;-71
2021/10/17 11:46:04;;;;;;;22.10;17.87;;;12.00;99.90;;;;;;6248286;23;20411;-71
2021/10/17 11:48:30;;;;;;;20.67;17.53;;;12.10;99.90;;;;;;6257572;23;20407;-72
2021/10/17 11:51:05;;;;;;;22.00;18.37;;;12.10;99.90;;;;;;6247494;22;20438;-72
2021/10/17 11:53:32;;;;;;;22.60;18.80;;;12.00;99.90;;;;;;6247553;23;20418;-72
2021/10/17 11:55:59;;;;;;;21.67;19.33;;;11.90;99.90;;;;;;6248774;23;20422;-72
2021/10/17 11:58:27;;;;;;;23.90;19.10;;;11.90;99.90;;;;;;6247883;23;20872;-72
2021/10/17 12:00:56;;;;;;;24.37;18.57;;;12.00;99.90;;;;;;6247883;22;20439;-74
2021/10/17 12:03:25;;;;;;;20.07;17.77;;;12.10;99.90;;;;;;6248250;23;20911;-72
2021/10/17 12:05:54;;;;;;;21.60;18.87;;;12.20;99.90;;;;;;6248125;23;20410;-72
2021/10/17 12:08:24;;;;;;;24.33;19.30;;;12.40;99.90;;;;;;6247876;23;20410;-71
2021/10/17 12:10:55;;;;;;;21.23;19.03;;;12.30;99.90;;;;;;6248173;22;20771;-71
2021/10/17 12:13:22;;;;;;;21.73;19.43;;;12.40;99.90;;;;;;6248166;23;20407;-72
2021/10/17 12:16:00;;;;;;;21.87;19.80;;;12.50;99.90;;;;;;6248049;23;20441;-72
2021/10/17 12:18:27;;;;;;;23.07;20.67;;;12.60;99.90;;;;;;6248362;23;20395;-72
2021/10/17 12:20:54;;;;;;;22.23;19.70;;;12.50;99.90;;;;;;6247863;22;20510;-72
2021/10/17 12:23:23;;;;;;;23.63;21.13;;;12.60;99.90;;;;;;6248522;23;20442;-72
2021/10/17 12:25:49;;;;;;;24.00;21.40;;;12.40;99.90;;;;;;6248078;23;20415;-72
2021/10/17 12:28:17;;;;;;;22.83;20.53;;;12.60;99.90;;;;;;6247987;23;20410;-72
2021/10/17 12:30:48;;;;;;;23.47;19.70;;;12.60;99.90;;;;;;6248757;22;20467;-71
2021/10/17 12:33:25;;;;;;;23.37;20.87;;;12.80;99.90;;;;;;6250093;23;20399;-70
2021/10/17 12:35:52;;;;;;;23.00;20.27;;;12.60;99.90;;;;;;6251181;23;20395;-72
2021/10/17 12:38:19;;;;;;;22.30;19.63;;;12.60;99.90;;;;;;6260241;23;20406;-71
2021/10/17 12:40:55;;;;;;;23.20;20.70;;;12.60;99.90;;;;;;6255834;22;20457;-72
2021/10/17 12:43:27;;;;;;;22.77;19.80;;;12.60;99.90;;;;;;6250814;23;20418;-71
2021/10/17 12:45:55;;;;;;;22.03;19.67;;;12.60;99.90;;;;;;6250170;23;20410;-72
2021/10/17 12:48:36;;;;;;;21.70;19.40;;;12.60;99.90;;;;;;6250477;23;20418;-72
2021/10/17 12:51:24;;;;;;;22.57;20.27;;;12.70;99.90;;;;;;6250566;22;20431;-73
2021/10/17 12:54:05;;;;;;;25.13;22.43;;;12.60;99.90;;;;;;6250859;23;20395;-73
2021/10/17 12:56:34;;;;;;;24.03;21.33;;;12.50;99.90;;;;;;6250787;23;20395;-72
2021/10/17 12:59:08;;;;;;;24.77;22.07;;;12.40;99.90;;;;;;6251170;23;20437;-71
2021/10/17 13:01:35;;;;;;;23.30;20.03;;;12.40;99.90;;;;;;6253763;22;20446;-71
2021/10/17 13:04:13;;;;;;;25.87;21.37;;;12.40;99.90;;;;;;6251349;23;20864;-69
2021/10/17 13:06:50;;;;;;;23.33;20.83;;;12.50;99.90;;;;;;6249977;23;20417;-72
2021/10/17 13:09:17;;;;;;;24.67;21.97;;;12.40;99.90;;;;;;6250434;23;20844;-72
2021/10/17 13:11:46;;;;;;;23.30;20.60;;;12.40;99.90;;;;;;6251866;22;20427;-72
2021/10/17 13:14:13;;;;;;;28.80;21.53;;;12.40;99.90;;;;;;6251318;23;20751;-72
2021/10/17 13:16:41;;;;;;;22.90;20.40;;;12.30;99.90;;;;;;6250373;23;20411;-72
2021/10/17 13:19:08;;;;;;;26.37;23.47;;;12.40;99.90;;;;;;6250525;23;20411;-72
2021/10/17 13:21:35;;;;;;;23.13;20.60;;;12.30;99.90;;;;;;6248764;22;20431;-71
2021/10/17 13:24:02;;;;;;;25.53;21.97;;;12.40;99.90;;;;;;6249207;23;20406;-72
2021/10/17 13:26:29;;;;;;;22.90;20.50;;;12.60;99.90;;;;;;6249476;23;20410;-73
2021/10/17 13:28:57;;;;;;;23.50;21.00;;;12.70;99.90;;;;;;6248751;23;20431;-73
2021/10/17 13:31:29;;;;;;;23.30;20.90;;;12.70;99.90;;;;;;6250355;22;20435;-72
2021/10/17 13:33:58;;;;;;;20.13;18.03;;;12.90;99.90;;;;;;6249990;23;20445;-73
2021/10/17 13:36:25;;;;;;;23.30;20.23;;;12.90;99.90;;;;;;6250541;23;20468;-72
2021/10/17 13:38:52;;;;;;;25.10;21.43;;;13.00;99.90;;;;;;6250928;23;20888;-71
2021/10/17 13:41:19;;;;;;;23.83;21.27;;;12.80;99.90;;;;;;6250062;22;20431;-71
2021/10/17 13:43:45;;;;;;;22.17;19.87;;;12.80;99.90;;;;;;6250316;23;20799;-72
2021/10/17 13:46:13;;;;;;;24.77;22.03;;;12.70;99.90;;;;;;6250037;23;20465;-72
2021/10/17 13:48:41;;;;;;;27.30;23.00;;;12.50;99.90;;;;;;6249692;23;20418;-71
2021/10/17 13:51:09;;;;;;;24.53;21.93;;;12.40;99.90;;;;;;6249683;22;20893;-71
2021/10/17 13:53:36;;;;;;;25.13;22.40;;;12.30;99.90;;;;;;6249982;23;20407;-72
2021/10/17 13:56:03;;;;;;;28.30;23.67;;;12.20;99.90;;;;;;6250015;23;20418;-72
2021/10/17 13:58:29;;;;;;;25.90;21.47;;;12.10;99.90;;;;;;6250242;23;20417;-72
2021/10/17 14:00:56;;;;;;;23.93;21.40;;;12.20;99.90;;;;;;6249813;22;20779;-72
2021/10/17 14:03:24;;;;;;;25.10;22.20;;;12.30;99.90;;;;;;6250399;23;20434;-71
2021/10/17 14:05:51;;;;;;;23.90;21.33;;;12.40;99.90;;;;;;6250531;23;20737;-72
2021/10/17 14:08:18;;;;;;;25.10;21.20;;;12.30;99.90;;;;;;6249720;23;20438;-72
2021/10/17 14:10:44;;;;;;;23.73;21.10;;;12.40;99.90;;;;;;6249478;22;20936;-71
2021/10/17 14:13:12;;;;;;;24.10;21.50;;;12.30;99.90;;;;;;6249759;23;20411;-72
2021/10/17 14:15:39;;;;;;;22.73;20.33;;;12.30;99.90;;;;;;6249729;23;20411;-71
2021/10/17 14:18:05;;;;;;;22.20;19.90;;;12.40;99.90;;;;;;6249455;23;20406;-71
2021/10/17 14:20:33;;;;;;;23.63;21.10;;;12.50;99.90;;;;;;6249291;22;20418;-71
2021/10/17 14:23:00;;;;;;;24.30;21.80;;;12.40;99.90;;;;;;6249550;23;20441;-72
2021/10/17 14:25:27;;;;;;;23.83;20.30;;;12.50;99.90;;;;;;6259491;23;20417;-71
2021/10/17 14:27:53;;;;;;;27.27;22.10;;;12.50;99.90;;;;;;6257030;23;20411;-72
2021/10/17 14:30:21;;;;;;;25.63;22.87;;;12.40;99.90;;;;;;6262997;22;20414;-72
2021/10/17 14:32:47;;;;;;;25.10;20.90;;;12.30;99.90;;;;;;6251957;23;20489;-71
2021/10/17 14:35:14;;;;;;;25.30;21.43;;;12.30;99.90;;;;;;6249098;23;20914;-71
2021/10/17 14:37:42;;;;;;;23.40;20.70;;;12.30;99.90;;;;;;6249700;23;20468;-71
2021/10/17 14:40:10;;;;;;;23.00;19.80;;;12.30;99.90;;;;;;6255569;23;20410;-71
2021/10/17 14:42:36;;;;;;;27.37;23.93;;;12.30;99.90;;;;;;6255073;22;20439;-71
2021/10/17 14:45:04;;;;;;;26.20;21.23;;;12.20;99.90;;;;;;6255189;23;20418;-72
2021/10/17 14:47:31;;;;;;;27.90;22.20;;;12.20;99.90;;;;;;6249220;23;20904;-71
2021/10/17 14:49:57;;;;;;;27.10;22.87;;;12.10;99.90;;;;;;6249566;23;20418;-72
2021/10/17 14:52:24;;;;;;;24.83;21.13;;;12.10;99.90;;;;;;6249235;22;20935;-72
2021/10/17 14:54:52;;;;;;;28.17;22.93;;;12.10;99.90;;;;;;6248761;23;20411;-72
2021/10/17 14:57:21;;;;;;;26.60;23.73;;;12.10;99.90;;;;;;6249365;23;20418;-71
2021/10/17 14:59:48;;;;;;;26.67;23.67;;;12.10;99.90;;;;;;6249221;23;20410;-71
2021/10/17 15:02:14;;;;;;;26.10;22.07;;;12.10;99.90;;;;;;6250094;22;20442;-72
2021/10/17 15:04:41;;;;;;;25.73;21.67;;;12.10;99.90;;;;;;6250309;23;20739;-71
2021/10/17 15:07:08;;;;;;;25.27;21.23;;;12.10;99.90;;;;;;6249994;23;20411;-71
2021/10/17 15:09:35;;;;;;;26.03;21.20;;;12.00;99.90;;;;;;6250222;23;20407;-72
2021/10/17 15:12:04;;;;;;;26.93;21.90;;;12.00;99.90;;;;;;6250235;22;20430;-72
2021/10/17 15:14:31;;;;;;;23.23;20.83;;;12.00;99.90;;;;;;6250321;23;20403;-71
2021/10/17 15:16:58;;;;;;;23.17;20.63;;;11.90;99.90;;;;;;6249314;23;20440;-71
2021/10/17 15:19:25;;;;;;;26.10;22.90;;;12.00;99.90;;;;;;6249867;23;20407;-71
2021/10/17 15:21:51;;;;;;;25.00;21.60;;;11.90;99.90;;;;;;6250218;22;20430;-72
2021/10/17 15:24:18;;;;;;;28.40;21.10;;;12.00;99.90;;;;;;6248622;23;20441;-71
2021/10/17 15:26:47;;;;;;;24.80;22.17;;;12.00;99.90;;;;;;6248879;23;20417;-72
2021/10/17 15:29:15;;;;;;;23.67;20.90;;;12.10;99.90;;;;;;6249750;23;20417;-71
2021/10/17 15:31:42;;;;;;;24.33;21.17;;;12.00;99.90;;;;;;6249649;22;20928;-71
2021/10/17 15:34:10;;;;;;;30.90;24.37;;;11.90;99.90;;;;;;6248321;23;20914;-70
2021/10/17 15:36:37;;;;;;;27.20;23.13;;;11.80;99.90;;;;;;6249358;23;20411;-71
2021/10/17 15:39:05;;;;;;;25.77;22.87;;;11.80;99.90;;;;;;6249257;23;20414;-71
2021/10/17 15:41:36;;;;;;;26.23;23.23;;;11.80;99.90;;;;;;6249713;22;20434;-72
2021/10/17 15:44:04;;;;;;;30.23;23.67;;;11.80;99.90;;;;;;6249664;23;20469;-72
2021/10/17 15:46:32;;;;;;;27.00;22.73;;;11.80;99.90;;;;;;6250182;23;20434;-72
2021/10/17 15:49:00;;;;;;;27.17;23.00;;;11.80;99.90;;;;;;6249368;23;20493;-72
2021/10/17 15:51:26;;;;;;;25.90;23.10;;;11.70;99.90;;;;;;6248306;22;20431;-72
2021/10/17 15:53:55;;;;;;;26.80;23.83;;;11.70;99.90;;;;;;6249535;23;20914;-72
2021/10/17 15:56:22;;;;;;;25.23;21.90;;;11.70;99.90;;;;;;6248642;23;20418;-72
2021/10/17 15:58:49;;;;;;;28.23;21.90;;;11.70;99.90;;;;;;6249155;23;20411;-72
2021/10/17 16:01:15;;;;;;;27.27;22.10;;;11.70;99.90;;;;;;6248716;22;20780;-71
2021/10/17 16:03:43;;;;;;;24.80;21.43;;;11.60;99.90;;;;;;6254853;23;20438;-72
2021/10/17 16:06:10;;;;;;;23.70;21.10;;;11.60;99.90;;;;;;6255182;23;20422;-72
2021/10/17 16:08:37;;;;;;;26.63;21.73;;;11.60;99.90;;;;;;6252857;23;20418;-72
2021/10/17 16:11:03;;;;;;;28.70;24.50;;;11.60;99.90;;;;;;6251667;22;20431;-71
2021/10/17 16:13:30;;;;;;;26.40;21.57;;;11.60;99.90;;;;;;6248784;23;20682;-72
2021/10/17 16:15:57;;;;;;;29.23;24.83;;;11.60;99.90;;;;;;6248498;23;20411;-72
2021/10/17 16:18:24;;;;;;;33.50;26.00;;;11.60;99.90;;;;;;6248553;23;20414;-72
2021/10/17 16:20:52;;;;;;;32.07;26.43;;;11.60;99.90;;;;;;6247655;22;20457;-71
2021/10/17 16:23:24;;;;;;;30.37;26.50;;;11.50;99.90;;;;;;6247846;23;20438;-72
2021/10/17 16:25:52;;;;;;;30.43;25.33;;;11.50;99.90;;;;;;6248258;23;20907;-71
2021/10/17 16:28:21;;;;;;;28.37;25.17;;;11.40;99.90;;;;;;6249299;23;20421;-71
2021/10/17 16:30:55;;;;;;;30.60;24.40;;;11.40;99.90;;;;;;6248445;22;20506;-71
2021/10/17 16:33:22;;;;;;;29.67;24.47;;;11.30;99.90;;;;;;6247909;23;20397;-71
2021/10/17 16:35:49;;;;;;;31.17;25.70;;;11.20;99.90;;;;;;6248573;23;20421;-70
2021/10/17 16:38:20;;;;;;;28.57;25.03;;;11.20;99.90;;;;;;6258683;23;20415;-71